Time;durP1;ratioP1;P1;durP2;ratioP2;P2;SDS_P1;SDS_P2;PMS_P1;PMS_P2;Temp;Humidity;BMP_temperature;BMP_pressure;BME280_temperature;BME280_humidity;BME280_pressure;Samples;Min_cycle;Max_cycle;Signal;HPM_P1;HPM_P2
2022/06/20 00:01:55;;;;;;;9.98;4.50;;;;;;;;;;6326587;28;20108;-77
2022/06/20 00:05:00;;;;;;;9.20;4.47;;;;;;;;;;6326642;28;20056;-82
2022/06/20 00:08:01;;;;;;;10.80;4.22;;;;;;;;;;6330452;28;20055;-78
2022/06/20 00:11:04;;;;;;;5.95;4.30;;;;;;;;;;6327699;28;20032;-78
2022/06/20 00:14:07;;;;;;;12.35;4.40;;;;;;;;;;6325962;28;20059;-78
2022/06/20 00:17:10;;;;;;;11.13;4.70;;;;;;;;;;6329238;28;20063;-77
2022/06/20 00:20:13;;;;;;;9.48;4.53;;;;;;;;;;6327205;28;20055;-79
2022/06/20 00:23:15;;;;;;;7.00;4.28;;;;;;;;;;6328352;28;20094;-76
2022/06/20 00:26:18;;;;;;;8.02;4.55;;;;;;;;;;6322572;28;20054;-77
2022/06/20 00:29:20;;;;;;;11.57;6.97;;;;;;;;;;6324327;28;20039;-75
2022/06/20 00:32:22;;;;;;;34.75;20.35;;;;;;;;;;6321340;28;20076;-74
2022/06/20 00:35:23;;;;;;;48.40;31.17;;;;;;;;;;6328755;28;20044;-76
2022/06/20 00:38:26;;;;;;;17.85;11.75;;;;;;;;;;6327473;28;20044;-75
2022/06/20 00:41:31;;;;;;;39.50;24.97;;;;;;;;;;6325638;28;20055;-75
2022/06/20 00:44:36;;;;;;;19.10;9.80;;;;;;;;;;6325837;28;20282;-75
2022/06/20 00:47:38;;;;;;;112.65;66.28;;;;;;;;;;6324383;28;20075;-74
2022/06/20 00:50:40;;;;;;;11.95;8.75;;;;;;;;;;6319388;28;20048;-73
2022/06/20 00:53:44;;;;;;;16.27;10.63;;;;;;;;;;6322661;28;20059;-74
2022/06/20 00:56:53;;;;;;;8.13;4.88;;;;;;;;;;6322707;28;20090;-75
2022/06/20 00:59:58;;;;;;;12.52;5.15;;;;;;;;;;6321706;28;20050;-75
2022/06/20 01:03:05;;;;;;;17.70;5.10;;;;;;;;;;6324739;28;20374;-75
2022/06/20 01:06:08;;;;;;;20.95;5.40;;;;;;;;;;6326243;28;20056;-79
2022/06/20 01:09:11;;;;;;;7.95;4.22;;;;;;;;;;6323991;28;20040;-79
2022/06/20 01:12:17;;;;;;;10.57;4.63;;;;;;;;;;6322716;28;20347;-79
2022/06/20 01:15:24;;;;;;;6.32;4.22;;;;;;;;;;6322137;28;20067;-79
2022/06/20 01:18:28;;;;;;;13.07;4.00;;;;;;;;;;6319536;28;20052;-77
2022/06/20 01:21:32;;;;;;;9.45;3.88;;;;;;;;;;6323499;28;20040;-78
2022/06/20 01:24:45;;;;;;;7.32;3.75;;;;;;;;;;6319065;28;20052;-77
2022/06/20 01:27:49;;;;;;;6.07;4.03;;;;;;;;;;6320999;28;20044;-77
2022/06/20 01:30:50;;;;;;;4.82;3.88;;;;;;;;;;6318856;28;20052;-77
2022/06/20 01:33:52;;;;;;;9.57;4.32;;;;;;;;;;6322903;28;20052;-77
2022/06/20 01:40:17;;;;;;;6.75;4.15;;;;;;;;;;6321545;28;20115;-77
2022/06/20 01:43:20;;;;;;;8.95;5.15;;;;;;;;;;6322391;28;20040;-78
2022/06/20 01:46:23;;;;;;;7.10;3.65;;;;;;;;;;6327164;28;20355;-77
2022/06/20 01:49:25;;;;;;;11.68;3.90;;;;;;;;;;6327625;28;20054;-77
2022/06/20 01:52:29;;;;;;;12.40;4.10;;;;;;;;;;6326922;28;20055;-79
2022/06/20 01:55:32;;;;;;;5.38;3.67;;;;;;;;;;6326260;28;20045;-77
2022/06/20 01:58:37;;;;;;;6.47;3.97;;;;;;;;;;6327193;28;20054;-77
2022/06/20 02:01:39;;;;;;;8.05;4.20;;;;;;;;;;6323716;28;20323;-78
2022/06/20 02:04:41;;;;;;;9.07;4.30;;;;;;;;;;6323491;28;20055;-76
2022/06/20 02:07:43;;;;;;;9.07;3.65;;;;;;;;;;6323147;28;20063;-77
2022/06/20 02:10:52;;;;;;;4.93;3.35;;;;;;;;;;6325230;28;20059;-77
2022/06/20 02:14:00;;;;;;;8.77;3.90;;;;;;;;;;6327663;28;20242;-77
2022/06/20 02:17:04;;;;;;;5.45;3.35;;;;;;;;;;6326082;28;20052;-77
2022/06/20 02:20:11;;;;;;;6.68;3.58;;;;;;;;;;6323966;28;20273;-76
2022/06/20 02:23:14;;;;;;;8.50;3.67;;;;;;;;;;6325684;28;20092;-79
2022/06/20 02:26:17;;;;;;;4.40;3.20;;;;;;;;;;6320119;28;20265;-81
2022/06/20 02:29:22;;;;;;;7.68;3.45;;;;;;;;;;6328403;28;20032;-80
2022/06/20 02:32:26;;;;;;;9.23;3.80;;;;;;;;;;6323876;28;20063;-79
2022/06/20 02:35:28;;;;;;;6.47;3.28;;;;;;;;;;6322869;28;20052;-79
2022/06/20 02:38:29;;;;;;;7.13;3.47;;;;;;;;;;6325117;28;20102;-80
2022/06/20 02:41:32;;;;;;;5.88;3.25;;;;;;;;;;6325542;28;20241;-81
2022/06/20 02:44:35;;;;;;;5.00;3.35;;;;;;;;;;6323247;28;20623;-81
2022/06/20 02:47:38;;;;;;;;;;;;;;;;;;6326125;28;20089;-80
2022/06/20 02:50:43;;;;;;;8.47;3.40;;;;;;;;;;6323160;28;20623;-79
2022/06/20 02:53:47;;;;;;;4.22;3.30;;;;;;;;;;6323247;28;20052;-79
2022/06/20 02:56:52;;;;;;;5.60;3.50;;;;;;;;;;6321550;28;20056;-81
2022/06/20 02:59:56;;;;;;;6.90;3.80;;;;;;;;;;6328208;28;20354;-80
2022/06/20 03:03:01;;;;;;;8.02;3.40;;;;;;;;;;6320570;28;20041;-81
2022/06/20 03:06:03;;;;;;;4.72;3.38;;;;;;;;;;6324606;28;20105;-79
2022/06/20 03:09:05;;;;;;;7.35;3.70;;;;;;;;;;6326325;28;20102;-78
2022/06/20 03:12:08;;;;;;;7.40;4.03;;;;;;;;;;6325974;28;20340;-79
2022/06/20 03:15:12;;;;;;;;;;;;;;;;;;6326521;28;20109;-77
2022/06/20 03:18:16;;;;;;;5.38;4.10;;;;;;;;;;6321260;28;19924;-78
2022/06/20 03:21:19;;;;;;;7.03;4.03;;;;;;;;;;6320914;28;20052;-79
2022/06/20 03:24:22;;;;;;;5.47;4.05;;;;;;;;;;6325540;28;20055;-79
2022/06/20 03:27:27;;;;;;;6.60;4.57;;;;;;;;;;6325328;28;20062;-78
2022/06/20 03:30:32;;;;;;;7.00;4.35;;;;;;;;;;6322676;28;20059;-79
2022/06/20 03:33:34;;;;;;;8.82;4.57;;;;;;;;;;6324573;28;20057;-77
2022/06/20 03:36:36;;;;;;;5.65;3.78;;;;;;;;;;6322121;28;20315;-77
2022/06/20 03:39:37;;;;;;;8.50;3.90;;;;;;;;;;6322780;28;20044;-77
2022/06/20 03:42:39;;;;;;;7.03;4.22;;;;;;;;;;6319239;28;20228;-78
2022/06/20 03:45:46;;;;;;;4.13;3.50;;;;;;;;;;6323051;28;20104;-77
2022/06/20 03:48:53;;;;;;;5.95;3.95;;;;;;;;;;6323128;28;20058;-77
2022/06/20 03:51:58;;;;;;;6.35;3.72;;;;;;;;;;6321475;28;20048;-77
2022/06/20 03:55:06;;;;;;;8.10;3.70;;;;;;;;;;6322254;28;20062;-77
2022/06/20 03:58:11;;;;;;;4.30;3.50;;;;;;;;;;6323213;28;20063;-76
2022/06/20 04:01:18;;;;;;;6.55;3.42;;;;;;;;;;6308106;28;20062;-76
2022/06/20 04:04:25;;;;;;;4.38;3.08;;;;;;;;;;6296308;28;20055;-78
2022/06/20 04:07:29;;;;;;;9.10;2.88;;;;;;;;;;6323429;28;20281;-79
2022/06/20 04:13:58;;;;;;;4.35;3.40;;;;;;;;;;6313904;28;20315;-80
2022/06/20 04:18:27;;;;;;;4.63;2.90;;;;;;;;;;6320212;28;20056;-77
2022/06/20 04:20:33;;;;;;;5.05;3.58;;;;;;;;;;6326130;28;20052;-79
2022/06/20 04:23:40;;;;;;;6.03;3.70;;;;;;;;;;6322465;28;20173;-78
2022/06/20 04:26:46;;;;;;;4.57;3.05;;;;;;;;;;6320942;28;20052;-78
2022/06/20 04:29:50;;;;;;;5.75;4.05;;;;;;;;;;6321919;28;20039;-78
2022/06/20 04:32:56;;;;;;;4.80;3.50;;;;;;;;;;6325374;28;20323;-78
2022/06/20 04:36:06;;;;;;;5.80;3.75;;;;;;;;;;6321036;28;20052;-78
2022/06/20 04:39:13;;;;;;;5.72;3.55;;;;;;;;;;6318553;28;20055;-77
2022/06/20 04:42:20;;;;;;;7.22;3.45;;;;;;;;;;6325524;28;20413;-77
2022/06/20 04:45:27;;;;;;;6.63;3.30;;;;;;;;;;6326717;28;20044;-78
2022/06/20 04:48:30;;;;;;;3.92;3.00;;;;;;;;;;6326907;28;20048;-77
2022/06/20 04:51:35;;;;;;;8.52;3.90;;;;;;;;;;6326207;28;20109;-78
2022/06/20 04:54:36;;;;;;;4.28;2.75;;;;;;;;;;6328014;28;20105;-77
2022/06/20 04:57:38;;;;;;;3.67;3.30;;;;;;;;;;6328861;28;20040;-77
2022/06/20 05:00:42;;;;;;;9.13;3.35;;;;;;;;;;6326998;28;20046;-78
2022/06/20 05:03:48;;;;;;;4.90;3.22;;;;;;;;;;6325491;28;20044;-77
2022/06/20 05:06:49;;;;;;;5.22;3.25;;;;;;;;;;6327541;28;20074;-77
2022/06/20 05:09:57;;;;;;;6.65;3.10;;;;;;;;;;6325874;28;20044;-77
2022/06/20 05:13:01;;;;;;;8.70;4.32;;;;;;;;;;6323681;28;20079;-77
2022/06/20 05:16:04;;;;;;;6.70;3.70;;;;;;;;;;6324983;28;20101;-77
2022/06/20 05:19:11;;;;;;;11.57;3.97;;;;;;;;;;6323786;28;20248;-77
2022/06/20 05:22:15;;;;;;;6.57;3.70;;;;;;;;;;6328043;28;20052;-77
2022/06/20 05:25:21;;;;;;;7.45;3.55;;;;;;;;;;6323497;28;20060;-78
2022/06/20 05:28:24;;;;;;;10.88;4.30;;;;;;;;;;6323314;28;20235;-77
2022/06/20 05:31:31;;;;;;;10.20;3.75;;;;;;;;;;6324003;28;20101;-77
2022/06/20 05:34:37;;;;;;;8.75;4.10;;;;;;;;;;6320882;28;20052;-77
2022/06/20 05:37:43;;;;;;;5.35;3.25;;;;;;;;;;6321508;28;20056;-77
2022/06/20 05:40:48;;;;;;;8.45;3.33;;;;;;;;;;6324458;28;20093;-77
2022/06/20 05:43:49;;;;;;;6.95;3.40;;;;;;;;;;6323598;28;20216;-78
2022/06/20 05:46:55;;;;;;;10.15;3.63;;;;;;;;;;6320682;28;20048;-77
2022/06/20 05:50:06;;;;;;;7.00;3.60;;;;;;;;;;6322089;28;20051;-77
2022/06/20 05:53:12;;;;;;;4.22;3.80;;;;;;;;;;6323045;28;20093;-77
2022/06/20 05:56:18;;;;;;;7.65;3.30;;;;;;;;;;6321805;28;20204;-77
2022/06/20 05:59:37;;;;;;;9.27;3.75;;;;;;;;;;6326326;28;20044;-77
2022/06/20 06:02:42;;;;;;;9.40;3.80;;;;;;;;;;6320969;28;20047;-77
2022/06/20 06:05:49;;;;;;;6.60;3.90;;;;;;;;;;6325054;28;20052;-77
2022/06/20 06:08:55;;;;;;;9.48;3.42;;;;;;;;;;6324303;28;20040;-78
2022/06/20 06:12:00;;;;;;;6.40;3.70;;;;;;;;;;6324042;28;20274;-80
2022/06/20 06:15:06;;;;;;;6.95;3.70;;;;;;;;;;6324755;28;20058;-78
2022/06/20 06:18:11;;;;;;;9.10;3.35;;;;;;;;;;6325275;28;20058;-78
2022/06/20 06:21:14;;;;;;;10.32;3.90;;;;;;;;;;6321795;28;20101;-78
2022/06/20 06:24:16;;;;;;;;;;;;;;;;;;6329636;28;20044;-78
2022/06/20 06:27:21;;;;;;;5.85;2.90;;;;;;;;;;6322416;28;20265;-79
2022/06/20 06:30:26;;;;;;;5.10;3.33;;;;;;;;;;6327381;28;20040;-78
2022/06/20 06:33:33;;;;;;;7.45;3.40;;;;;;;;;;6330633;28;20056;-78
2022/06/20 06:36:39;;;;;;;6.35;3.05;;;;;;;;;;6327237;28;20093;-78
2022/06/20 06:39:46;;;;;;;5.85;3.72;;;;;;;;;;6326936;28;20066;-79
2022/06/20 06:42:47;;;;;;;8.98;3.63;;;;;;;;;;6327726;28;20066;-78
2022/06/20 06:45:51;;;;;;;8.98;4.30;;;;;;;;;;6326308;28;20280;-78
2022/06/20 06:49:04;;;;;;;9.65;4.80;;;;;;;;;;6326310;28;20040;-78
2022/06/20 06:52:10;;;;;;;23.38;4.60;;;;;;;;;;6328288;28;20107;-78
2022/06/20 06:55:24;;;;;;;11.75;4.07;;;;;;;;;;6330273;28;20062;-78
2022/06/20 06:58:30;;;;;;;7.10;3.42;;;;;;;;;;6323800;28;20055;-78
2022/06/20 07:01:36;;;;;;;4.60;3.95;;;;;;;;;;6328173;28;20048;-78
2022/06/20 07:04:43;;;;;;;10.02;4.30;;;;;;;;;;6327962;28;20060;-77
2022/06/20 07:07:49;;;;;;;6.07;3.90;;;;;;;;;;6329363;28;20051;-77
2022/06/20 07:10:53;;;;;;;8.82;4.00;;;;;;;;;;6326479;28;20082;-78
2022/06/20 07:14:01;;;;;;;9.30;4.68;;;;;;;;;;6329225;28;20040;-77
2022/06/20 07:17:08;;;;;;;8.73;4.88;;;;;;;;;;6325921;28;20044;-78
2022/06/20 07:20:10;;;;;;;4.20;3.60;;;;;;;;;;6328059;28;20063;-78
2022/06/20 07:23:15;;;;;;;8.48;3.97;;;;;;;;;;6323188;28;20098;-78
2022/06/20 07:26:18;;;;;;;10.02;4.43;;;;;;;;;;6322933;28;20055;-78
2022/06/20 07:29:21;;;;;;;;;;;;;;;;;;6323111;28;20048;-78
2022/06/20 07:32:29;;;;;;;10.27;4.20;;;;;;;;;;6328056;28;20092;-78
2022/06/20 07:35:36;;;;;;;9.63;4.40;;;;;;;;;;6326804;28;20062;-78
2022/06/20 07:38:42;;;;;;;8.23;3.20;;;;;;;;;;6327761;28;20056;-78
2022/06/20 07:41:46;;;;;;;5.35;2.60;;;;;;;;;;6325430;28;20066;-79
2022/06/20 07:44:50;;;;;;;4.88;2.78;;;;;;;;;;6326688;28;20346;-80
2022/06/20 07:47:54;;;;;;;3.10;2.47;;;;;;;;;;6329414;28;20047;-78
2022/06/20 07:50:59;;;;;;;5.00;3.00;;;;;;;;;;6328694;28;20262;-78
2022/06/20 07:54:08;;;;;;;6.90;2.92;;;;;;;;;;6329331;28;20060;-78
2022/06/20 07:57:13;;;;;;;4.63;3.08;;;;;;;;;;6325872;28;20064;-78
2022/06/20 08:00:17;;;;;;;5.90;3.20;;;;;;;;;;6326364;28;20123;-80
2022/06/20 08:03:25;;;;;;;5.93;3.20;;;;;;;;;;6328465;28;20039;-78
2022/06/20 08:06:29;;;;;;;11.93;3.05;;;;;;;;;;6327161;28;20051;-80
2022/06/20 08:09:39;;;;;;;6.15;3.03;;;;;;;;;;6328664;28;20231;-79
2022/06/20 08:12:45;;;;;;;9.48;2.97;;;;;;;;;;6329395;28;20050;-78
2022/06/20 08:15:53;;;;;;;6.40;3.00;;;;;;;;;;6327941;28;20063;-79
2022/06/20 08:18:54;;;;;;;5.63;3.10;;;;;;;;;;6325397;28;20041;-79
2022/06/20 08:22:04;;;;;;;5.07;2.78;;;;;;;;;;6327306;28;20052;-77
2022/06/20 08:25:12;;;;;;;7.20;2.83;;;;;;;;;;6322239;28;20040;-79
2022/06/20 08:28:18;;;;;;;4.93;2.28;;;;;;;;;;6325157;28;20243;-79
2022/06/20 08:31:24;;;;;;;3.75;2.50;;;;;;;;;;6327999;28;20051;-77
2022/06/20 08:34:32;;;;;;;4.10;2.33;;;;;;;;;;6325018;28;20043;-79
2022/06/20 08:37:36;;;;;;;6.43;2.45;;;;;;;;;;6324107;28;20056;-78
2022/06/20 08:41:15;;;;;;;3.38;2.40;;;;;;;;;;6323556;28;20070;-78
2022/06/20 08:44:46;;;;;;;3.35;2.10;;;;;;;;;;6327535;28;20062;-78
2022/06/20 08:48:32;;;;;;;4.10;2.10;;;;;;;;;;6324724;28;20066;-76
2022/06/20 08:52:19;;;;;;;5.03;2.22;;;;;;;;;;6323311;28;20327;-78
2022/06/20 08:55:58;;;;;;;8.98;3.05;;;;;;;;;;6250191;28;20056;-78
2022/06/20 08:59:08;;;;;;;6.38;2.60;;;;;;;;;;6243400;28;20056;-78
2022/06/20 09:02:19;;;;;;;5.20;2.40;;;;;;;;;;6249443;28;20057;-78
2022/06/20 09:05:36;;;;;;;5.32;2.55;;;;;;;;;;6248429;28;20056;-77
2022/06/20 09:09:02;;;;;;;2.80;2.50;;;;;;;;;;6249065;28;20244;-77
2022/06/20 09:12:42;;;;;;;3.65;2.67;;;;;;;;;;6249421;28;20046;-77
2022/06/20 09:15:50;;;;;;;3.72;2.50;;;;;;;;;;6251007;28;20045;-77
2022/06/20 09:19:06;;;;;;;4.72;2.80;;;;;;;;;;6246806;28;20050;-78
2022/06/20 09:22:14;;;;;;;6.15;2.95;;;;;;;;;;6249428;28;20052;-78
2022/06/20 09:25:31;;;;;;;4.45;2.85;;;;;;;;;;6248917;28;20628;-78
2022/06/20 09:28:58;;;;;;;4.68;2.70;;;;;;;;;;6267782;28;20051;-79
2022/06/20 09:32:27;;;;;;;6.32;3.10;;;;;;;;;;6314465;28;20124;-79
2022/06/20 09:36:16;;;;;;;4.90;3.47;;;;;;;;;;6322402;28;20044;-79
2022/06/20 09:39:35;;;;;;;6.63;2.85;;;;;;;;;;6195943;28;20252;-80
2022/06/20 09:42:43;;;;;;;3.20;2.70;;;;;;;;;;6217009;28;20268;-77
2022/06/20 09:45:52;;;;;;;4.68;3.08;;;;;;;;;;6220712;28;20045;-78
2022/06/20 09:49:00;;;;;;;8.65;3.47;;;;;;;;;;6220289;28;20046;-77
2022/06/20 09:52:09;;;;;;;7.88;3.20;;;;;;;;;;6220975;28;20345;-79
2022/06/20 09:55:17;;;;;;;6.85;3.00;;;;;;;;;;6222305;28;20061;-80
2022/06/20 09:58:23;;;;;;;6.80;3.50;;;;;;;;;;6221734;28;20222;-78
2022/06/20 10:01:33;;;;;;;5.50;2.80;;;;;;;;;;6219446;28;20053;-79
2022/06/20 10:04:40;;;;;;;4.53;3.88;;;;;;;;;;6226779;28;20062;-79
2022/06/20 10:07:46;;;;;;;6.40;3.50;;;;;;;;;;6229289;28;20280;-78
2022/06/20 10:10:54;;;;;;;5.15;3.40;;;;;;;;;;6230380;28;20204;-79
2022/06/20 10:14:01;;;;;;;6.32;3.60;;;;;;;;;;6250625;28;20040;-78
2022/06/20 10:17:13;;;;;;;4.47;3.63;;;;;;;;;;6327276;28;20040;-79
2022/06/20 10:20:25;;;;;;;5.50;3.40;;;;;;;;;;6329934;28;20133;-78
2022/06/20 10:23:40;;;;;;;7.57;3.65;;;;;;;;;;6328838;28;20087;-79
2022/06/20 10:26:55;;;;;;;6.07;3.85;;;;;;;;;;6328204;28;20048;-78
2022/06/20 10:30:05;;;;;;;9.13;4.00;;;;;;;;;;6327304;28;20050;-79
2022/06/20 10:33:31;;;;;;;6.60;3.65;;;;;;;;;;6326963;28;20054;-78
2022/06/20 10:36:44;;;;;;;5.07;3.95;;;;;;;;;;6328476;28;20334;-80
2022/06/20 10:39:51;;;;;;;8.90;3.97;;;;;;;;;;6329441;28;20047;-79
2022/06/20 10:42:58;;;;;;;4.00;3.53;;;;;;;;;;6329335;28;20145;-79
2022/06/20 10:46:02;;;;;;;6.43;3.90;;;;;;;;;;6329918;28;20056;-78
2022/06/20 10:49:31;;;;;;;6.00;4.90;;;;;;;;;;6327953;28;20206;-79
2022/06/20 10:52:43;;;;;;;7.68;4.57;;;;;;;;;;6325579;28;20068;-77
2022/06/20 10:55:47;;;;;;;;;;;;;;;;;;6328300;28;20044;-76
2022/06/20 10:58:59;;;;;;;7.50;4.50;;;;;;;;;;6328743;28;20239;-78
2022/06/20 11:02:07;;;;;;;8.73;4.90;;;;;;;;;;6329154;28;20048;-78
2022/06/20 11:05:19;;;;;;;6.82;4.72;;;;;;;;;;6328960;28;20056;-78
2022/06/20 11:08:29;;;;;;;8.10;4.93;;;;;;;;;;6324073;28;20104;-77
2022/06/20 11:11:38;;;;;;;7.05;5.65;;;;;;;;;;6328181;28;20078;-78
2022/06/20 11:14:44;;;;;;;5.18;4.57;;;;;;;;;;6325660;28;20074;-78
2022/06/20 11:17:52;;;;;;;6.38;4.15;;;;;;;;;;6324614;28;20059;-79
2022/06/20 11:20:59;;;;;;;7.95;4.30;;;;;;;;;;6324686;28;20051;-79
2022/06/20 11:24:16;;;;;;;13.68;10.18;;;;;;;;;;6331299;28;20228;-79
2022/06/20 11:27:33;;;;;;;7.80;4.05;;;;;;;;;;6323973;28;20323;-82
2022/06/20 11:30:41;;;;;;;23.52;14.75;;;;;;;;;;6325940;28;20040;-81
2022/06/20 11:34:06;;;;;;;6.32;4.53;;;;;;;;;;6327627;28;20043;-80
2022/06/20 11:37:17;;;;;;;7.85;4.53;;;;;;;;;;6322756;28;20056;-82
2022/06/20 11:40:32;;;;;;;7.00;4.77;;;;;;;;;;6327856;28;20273;-79
2022/06/20 11:44:06;;;;;;;8.75;6.88;;;;;;;;;;6325153;28;20649;-79
2022/06/20 11:47:30;;;;;;;7.68;4.97;;;;;;;;;;6326552;28;20117;-79
2022/06/20 11:50:39;;;;;;;10.82;6.53;;;;;;;;;;6331115;28;20102;-81
2022/06/20 11:53:51;;;;;;;22.38;18.33;;;;;;;;;;6329238;28;20056;-81
2022/06/20 11:56:59;;;;;;;9.57;4.93;;;;;;;;;;6328324;28;20044;-80
2022/06/20 12:00:04;;;;;;;5.38;3.63;;;;;;;;;;6329117;28;20056;-79
2022/06/20 12:03:14;;;;;;;5.80;3.60;;;;;;;;;;6324264;28;20123;-78
2022/06/20 12:06:22;;;;;;;7.95;3.45;;;;;;;;;;6328175;28;20044;-79
2022/06/20 12:09:32;;;;;;;5.35;3.90;;;;;;;;;;6328706;28;20043;-78
2022/06/20 12:12:40;;;;;;;6.05;3.35;;;;;;;;;;6324379;28;20226;-78
2022/06/20 12:15:47;;;;;;;14.57;4.38;;;;;;;;;;6327991;28;20040;-78
2022/06/20 12:25:43;;;;;;;7.78;3.50;;;;;;;;;;6324534;28;20052;-77
2022/06/20 12:28:47;;;;;;;5.85;3.40;;;;;;;;;;6324102;28;20059;-77
2022/06/20 12:31:50;;;;;;;6.72;3.88;;;;;;;;;;6327531;28;20052;-77
2022/06/20 12:34:54;;;;;;;6.45;3.78;;;;;;;;;;6325124;28;20051;-75
2022/06/20 12:38:00;;;;;;;13.68;4.50;;;;;;;;;;6318285;28;20049;-79
2022/06/20 12:41:06;;;;;;;8.90;3.75;;;;;;;;;;6323019;28;20373;-79
2022/06/20 12:44:22;;;;;;;5.25;3.38;;;;;;;;;;6328022;28;20280;-78
2022/06/20 12:47:54;;;;;;;6.40;4.07;;;;;;;;;;6329481;28;20043;-81
2022/06/20 12:50:57;;;;;;;;;;;;;;;;;;6323023;28;20266;-79
2022/06/20 12:54:10;;;;;;;8.50;3.67;;;;;;;;;;6325172;28;19935;-79
2022/06/20 12:57:25;;;;;;;6.05;3.47;;;;;;;;;;6324453;28;20366;-80
2022/06/20 13:00:40;;;;;;;6.47;4.07;;;;;;;;;;6324732;28;20089;-79
2022/06/20 13:04:13;;;;;;;7.78;3.90;;;;;;;;;;6326164;28;20193;-80
2022/06/20 13:07:35;;;;;;;5.30;3.70;;;;;;;;;;6320084;28;20270;-81
2022/06/20 13:10:46;;;;;;;6.10;3.33;;;;;;;;;;6318868;28;20099;-81
2022/06/20 13:14:26;;;;;;;8.90;3.95;;;;;;;;;;6320278;28;20319;-81
2022/06/20 13:17:36;;;;;;;12.00;3.65;;;;;;;;;;6297031;28;20090;-79
2022/06/20 13:20:43;;;;;;;7.55;3.90;;;;;;;;;;6321441;28;20050;-79
2022/06/20 13:23:52;;;;;;;6.53;4.00;;;;;;;;;;6321176;28;20067;-80
2022/06/20 13:27:04;;;;;;;8.50;4.18;;;;;;;;;;6319878;28;20098;-79
2022/06/20 13:30:13;;;;;;;;;;;;;;;;;;6322866;28;20074;-80
2022/06/20 13:33:19;;;;;;;11.68;4.78;;;;;;;;;;6320808;28;19982;-81
2022/06/20 13:36:25;;;;;;;9.60;4.03;;;;;;;;;;6322443;28;20067;-79
2022/06/20 13:39:32;;;;;;;9.73;4.53;;;;;;;;;;6320589;28;20078;-79
2022/06/20 13:42:38;;;;;;;7.72;4.20;;;;;;;;;;6326635;28;20081;-80
2022/06/20 13:45:46;;;;;;;7.53;4.20;;;;;;;;;;6325480;28;21081;-80
2022/06/20 13:48:50;;;;;;;11.10;4.40;;;;;;;;;;6326600;28;20093;-80
2022/06/20 13:51:55;;;;;;;8.77;4.55;;;;;;;;;;6327379;28;20060;-79
2022/06/20 13:55:01;;;;;;;6.15;3.88;;;;;;;;;;6326822;28;20146;-79
2022/06/20 13:58:07;;;;;;;9.65;4.20;;;;;;;;;;6325337;28;20041;-79
2022/06/20 14:01:13;;;;;;;4.65;3.90;;;;;;;;;;6324657;28;21104;-80
2022/06/20 14:04:16;;;;;;;10.25;3.83;;;;;;;;;;6327888;28;20646;-79
2022/06/20 14:07:22;;;;;;;5.93;4.00;;;;;;;;;;6322648;28;20135;-80
2022/06/20 14:10:28;;;;;;;6.57;4.10;;;;;;;;;;6328343;28;20072;-80
2022/06/20 14:13:32;;;;;;;13.45;4.35;;;;;;;;;;6327873;28;20040;-81
2022/06/20 14:16:37;;;;;;;5.72;3.95;;;;;;;;;;6325699;28;20048;-79
2022/06/20 14:19:43;;;;;;;8.65;4.10;;;;;;;;;;6320475;28;20052;-80
2022/06/20 14:22:47;;;;;;;9.57;4.00;;;;;;;;;;6322232;28;20040;-79
2022/06/20 14:25:51;;;;;;;10.80;4.05;;;;;;;;;;6316991;28;20113;-80
2022/06/20 14:28:53;;;;;;;6.97;4.20;;;;;;;;;;6321896;28;20058;-81
2022/06/20 14:32:00;;;;;;;8.23;4.05;;;;;;;;;;6322509;28;20238;-81
2022/06/20 14:35:23;;;;;;;12.23;4.05;;;;;;;;;;6321385;28;20670;-79
2022/06/20 14:38:34;;;;;;;7.07;4.05;;;;;;;;;;6318388;28;20056;-81
2022/06/20 14:41:42;;;;;;;7.20;4.22;;;;;;;;;;6323471;28;20339;-82
2022/06/20 14:44:53;;;;;;;6.13;4.07;;;;;;;;;;6326956;28;20132;-81
2022/06/20 14:48:02;;;;;;;7.13;3.83;;;;;;;;;;6319234;28;20040;-79
2022/06/20 14:51:08;;;;;;;10.60;3.75;;;;;;;;;;6321878;28;20101;-79
2022/06/20 14:54:16;;;;;;;9.43;4.65;;;;;;;;;;6328356;28;20047;-85
2022/06/20 14:57:23;;;;;;;9.82;4.00;;;;;;;;;;6319828;28;20067;-83
2022/06/20 15:00:31;;;;;;;7.32;4.00;;;;;;;;;;6320884;28;20105;-79
2022/06/20 15:03:57;;;;;;;11.57;4.80;;;;;;;;;;6326395;28;20048;-79
2022/06/20 15:07:11;;;;;;;8.13;3.88;;;;;;;;;;6326655;28;20043;-79
2022/06/20 15:10:23;;;;;;;8.27;3.72;;;;;;;;;;6324193;28;20060;-80
2022/06/20 15:13:30;;;;;;;9.70;3.73;;;;;;;;;;6323448;28;20272;-78
2022/06/20 15:16:35;;;;;;;9.40;3.28;;;;;;;;;;6315869;28;20048;-77
2022/06/20 15:19:42;;;;;;;5.53;3.30;;;;;;;;;;6312818;28;20059;-77
2022/06/20 15:22:51;;;;;;;7.25;3.50;;;;;;;;;;6320828;28;20046;-77
2022/06/20 15:25:55;;;;;;;5.18;3.20;;;;;;;;;;6316901;28;20090;-82
2022/06/20 15:29:00;;;;;;;8.35;3.67;;;;;;;;;;6318773;28;20048;-80
2022/06/20 15:32:04;;;;;;;6.38;3.00;;;;;;;;;;6322196;28;20054;-79
2022/06/20 15:38:54;;;;;;;6.85;3.13;;;;;;;;;;6318878;28;20059;-79
2022/06/20 15:42:08;;;;;;;10.77;5.70;;;;;;;;;;6321819;28;20142;-75
2022/06/20 15:45:13;;;;;;;9.45;6.10;;;;;;;;;;6319480;28;20052;-74
2022/06/20 15:48:18;;;;;;;10.63;4.05;;;;;;;;;;6320562;28;20097;-75
2022/06/20 15:51:26;;;;;;;27.30;14.27;;;;;;;;;;6321998;28;20127;-73
2022/06/20 15:54:43;;;;;;;6.38;4.25;;;;;;;;;;6321995;28;20052;-78
2022/06/20 15:57:54;;;;;;;12.05;2.60;;;;;;;;;;6327680;28;20062;-79
2022/06/20 16:01:03;;;;;;;14.07;3.25;;;;;;;;;;6317539;28;20267;-77
2022/06/20 16:04:11;;;;;;;6.70;2.95;;;;;;;;;;6324929;28;20258;-79
2022/06/20 16:07:23;;;;;;;7.68;3.35;;;;;;;;;;6319545;28;20097;-77
2022/06/20 16:10:31;;;;;;;5.53;2.85;;;;;;;;;;6320845;28;20090;-77
2022/06/20 16:13:35;;;;;;;11.93;3.20;;;;;;;;;;6319897;28;20049;-81
2022/06/20 16:16:44;;;;;;;5.28;2.55;;;;;;;;;;6322830;28;20048;-79
2022/06/20 16:19:46;;;;;;;12.43;2.80;;;;;;;;;;6322959;28;20119;-80
2022/06/20 16:22:50;;;;;;;5.97;2.75;;;;;;;;;;6321991;28;20059;-80
2022/06/20 16:26:01;;;;;;;8.35;3.03;;;;;;;;;;6322855;28;20357;-79
2022/06/20 16:29:15;;;;;;;8.65;2.80;;;;;;;;;;6324014;28;20085;-79
2022/06/20 16:32:24;;;;;;;6.70;2.72;;;;;;;;;;6319901;28;20056;-77
2022/06/20 16:35:29;;;;;;;9.15;2.78;;;;;;;;;;6323346;28;20051;-79
2022/06/20 16:38:32;;;;;;;6.60;2.50;;;;;;;;;;6321838;28;20328;-78
2022/06/20 16:41:45;;;;;;;4.32;2.83;;;;;;;;;;6321796;28;20310;-78
2022/06/20 16:44:52;;;;;;;6.03;2.53;;;;;;;;;;6321096;28;20067;-78
2022/06/20 16:47:59;;;;;;;5.60;2.45;;;;;;;;;;6320956;28;20590;-77
2022/06/20 16:51:16;;;;;;;8.63;2.90;;;;;;;;;;6321430;28;20044;-78
2022/06/20 16:54:24;;;;;;;10.23;2.45;;;;;;;;;;6324150;28;20048;-78
2022/06/20 16:57:29;;;;;;;13.30;2.95;;;;;;;;;;6323859;28;20048;-78
2022/06/20 17:00:37;;;;;;;4.45;2.50;;;;;;;;;;6321661;28;20102;-77
2022/06/20 17:03:46;;;;;;;6.07;2.80;;;;;;;;;;6325231;28;20068;-78
2022/06/20 17:06:54;;;;;;;4.90;2.58;;;;;;;;;;6319238;28;20048;-78
2022/06/20 17:10:05;;;;;;;9.02;2.72;;;;;;;;;;6319054;28;20332;-79
2022/06/20 17:13:13;;;;;;;8.57;2.70;;;;;;;;;;6319598;28;20048;-79
2022/06/20 17:16:22;;;;;;;6.50;2.47;;;;;;;;;;6309974;28;20056;-78
2022/06/20 17:19:34;;;;;;;4.55;2.38;;;;;;;;;;6321328;28;20061;-79
2022/06/20 17:22:46;;;;;;;7.73;3.23;;;;;;;;;;6317510;28;20182;-80
2022/06/20 17:25:58;;;;;;;9.32;2.63;;;;;;;;;;6316442;28;20048;-77
2022/06/20 17:29:12;;;;;;;4.88;2.50;;;;;;;;;;6319823;28;20070;-79
2022/06/20 17:32:18;;;;;;;6.25;2.58;;;;;;;;;;6319387;28;20258;-77
2022/06/20 17:35:26;;;;;;;6.75;2.70;;;;;;;;;;6315995;28;20049;-78
2022/06/20 17:38:39;;;;;;;5.75;2.28;;;;;;;;;;6320600;28;20064;-75
2022/06/20 17:41:48;;;;;;;5.10;3.30;;;;;;;;;;6317091;28;20062;-75
2022/06/20 17:44:56;;;;;;;7.40;3.15;;;;;;;;;;6320827;28;20070;-79
2022/06/20 17:48:04;;;;;;;8.70;3.72;;;;;;;;;;6318303;28;20045;-77
2022/06/20 17:51:10;;;;;;;5.10;3.03;;;;;;;;;;6319068;28;20345;-77
2022/06/20 17:54:18;;;;;;;11.35;3.17;;;;;;;;;;6320443;28;20048;-78
2022/06/20 17:57:28;;;;;;;5.70;3.63;;;;;;;;;;6317374;28;20063;-77
2022/06/20 18:00:35;;;;;;;5.05;2.90;;;;;;;;;;6317796;28;20072;-74
2022/06/20 18:03:40;;;;;;;5.70;3.25;;;;;;;;;;6315232;28;20098;-78
2022/06/20 18:06:44;;;;;;;9.93;3.53;;;;;;;;;;6317937;28;20048;-76
2022/06/20 18:09:49;;;;;;;9.88;3.90;;;;;;;;;;6319416;28;20101;-77
2022/06/20 18:12:59;;;;;;;5.93;3.50;;;;;;;;;;6317136;28;20331;-75
2022/06/20 18:16:04;;;;;;;7.25;3.78;;;;;;;;;;6319046;28;20097;-73
2022/06/20 18:19:08;;;;;;;8.93;3.30;;;;;;;;;;6319171;28;20101;-77
2022/06/20 18:22:15;;;;;;;7.93;3.55;;;;;;;;;;6320701;28;20265;-78
2022/06/20 18:25:23;;;;;;;7.75;3.92;;;;;;;;;;6317915;28;20045;-79
2022/06/20 18:28:27;;;;;;;6.90;3.20;;;;;;;;;;6324812;28;20052;-75
2022/06/20 18:31:32;;;;;;;5.18;3.13;;;;;;;;;;6322733;28;20055;-76
2022/06/20 18:34:37;;;;;;;6.30;3.67;;;;;;;;;;6321095;28;20094;-77
2022/06/20 18:37:40;;;;;;;7.47;3.35;;;;;;;;;;6327977;28;20056;-79
2022/06/20 18:41:14;;;;;;;4.80;3.28;;;;;;;;;;6322305;28;20080;-76
2022/06/20 18:44:18;;;;;;;9.23;3.33;;;;;;;;;;6323523;28;20381;-78
2022/06/20 18:47:41;;;;;;;6.97;3.00;;;;;;;;;;6322741;28;20047;-77
2022/06/20 18:50:48;;;;;;;6.32;2.85;;;;;;;;;;6320171;28;20052;-77
2022/06/20 18:53:59;;;;;;;6.03;3.17;;;;;;;;;;6326901;28;20052;-76
2022/06/20 18:57:10;;;;;;;6.30;3.20;;;;;;;;;;6320755;28;20110;-76
2022/06/20 19:00:32;;;;;;;6.57;3.42;;;;;;;;;;6329320;28;20058;-76
2022/06/20 19:03:49;;;;;;;4.70;3.10;;;;;;;;;;6321582;28;20292;-76
2022/06/20 19:07:07;;;;;;;6.35;3.20;;;;;;;;;;6325127;28;20427;-77